Time;durP1;ratioP1;P1;durP2;ratioP2;P2;SDS_P1;SDS_P2;PMS_P1;PMS_P2;Temp;Humidity;BMP_temperature;BMP_pressure;BME280_temperature;BME280_humidity;BME280_pressure;Samples;Min_cycle;Max_cycle;Signal;HPM_P1;HPM_P2
2023/09/15 04:30:29;;;;;;;0.00;0.00;;;16.30;73.90;;;;;;5822595;23;20059;-76
2023/09/15 04:32:55;;;;;;;0.00;0.00;;;16.30;74.10;;;;;;4903068;29;20036;-76
2023/09/15 04:35:20;;;;;;;0.00;0.00;;;16.30;73.60;;;;;;4920545;29;20056;-77
2023/09/15 04:37:46;;;;;;;0.00;0.00;;;16.30;74.00;;;;;;4903900;29;20028;-76
2023/09/15 04:40:12;;;;;;;0.00;0.00;;;16.30;74.00;;;;;;4920616;29;20016;-76
2023/09/15 04:42:40;;;;;;;0.00;0.00;;;16.30;74.10;;;;;;4920483;29;20039;-77
2023/09/15 04:45:06;;;;;;;0.00;0.00;;;16.30;74.00;;;;;;4920461;29;20024;-77
2023/09/15 04:47:34;;;;;;;0.00;0.00;;;16.30;73.90;;;;;;4902949;29;20024;-76
2023/09/15 04:49:59;;;;;;;0.10;0.03;;;16.30;73.90;;;;;;4914885;29;20024;-76
2023/09/15 04:52:25;;;;;;;0.05;0.03;;;16.30;73.80;;;;;;4902916;29;20403;-76
2023/09/15 04:54:52;;;;;;;0.00;0.00;;;16.30;74.00;;;;;;4903437;29;20506;-76
2023/09/15 04:57:19;;;;;;;0.00;0.00;;;16.30;74.00;;;;;;4920393;29;20037;-75
2023/09/15 04:59:46;;;;;;;0.00;0.00;;;16.30;73.90;;;;;;4920399;29;20025;-75
2023/09/15 05:02:13;;;;;;;0.00;0.00;;;16.30;74.00;;;;;;4921100;29;20043;-76
2023/09/15 05:04:39;;;;;;;0.00;0.00;;;16.30;74.20;;;;;;4919596;29;20048;-75
2023/09/15 05:07:05;;;;;;;0.00;0.00;;;16.30;74.20;;;;;;4919791;29;20063;-77
2023/09/15 05:09:31;;;;;;;0.20;0.10;;;16.30;74.40;;;;;;4920678;29;20032;-77
2023/09/15 05:11:57;;;;;;;0.00;0.00;;;16.40;74.30;;;;;;4920123;29;20498;-76
2023/09/15 05:14:22;;;;;;;0.00;0.00;;;16.40;74.30;;;;;;4903246;29;20572;-75
2023/09/15 05:16:48;;;;;;;0.00;0.00;;;16.40;74.10;;;;;;4920286;29;20855;-75
2023/09/15 05:19:14;;;;;;;0.00;0.00;;;16.40;74.30;;;;;;4892453;29;20024;-76
2023/09/15 05:21:41;;;;;;;0.00;0.00;;;16.50;74.10;;;;;;4896946;29;20033;-75
2023/09/15 05:24:07;;;;;;;0.00;0.00;;;16.50;74.20;;;;;;4901005;29;20033;-75
2023/09/15 05:26:32;;;;;;;0.00;0.00;;;16.50;74.30;;;;;;4920281;29;20083;-75
2023/09/15 05:28:58;;;;;;;0.00;0.00;;;16.50;74.30;;;;;;4899012;29;21089;-77
2023/09/15 05:31:25;;;;;;;0.00;0.00;;;16.60;74.40;;;;;;4895359;29;20286;-77
2023/09/15 05:33:57;;;;;;;0.00;0.00;;;16.60;74.20;;;;;;4908320;29;20027;-77
2023/09/15 05:36:24;;;;;;;0.20;0.08;;;16.70;74.30;;;;;;4900880;29;20029;-77
2023/09/15 05:38:50;;;;;;;0.08;0.08;;;16.70;74.30;;;;;;4908683;29;20480;-77
2023/09/15 05:41:15;;;;;;;0.00;0.00;;;16.70;74.20;;;;;;4903106;29;20506;-78
2023/09/15 05:43:41;;;;;;;0.08;0.08;;;16.80;73.90;;;;;;4919704;29;20024;-77
2023/09/15 05:46:07;;;;;;;0.00;0.00;;;16.80;74.00;;;;;;4919465;29;20032;-79
2023/09/15 05:48:33;;;;;;;0.00;0.00;;;16.80;74.20;;;;;;4900990;29;20027;-78
2023/09/15 05:50:59;;;;;;;0.00;0.00;;;16.80;74.00;;;;;;4913954;29;20024;-77
2023/09/15 05:53:24;;;;;;;0.05;0.05;;;16.80;74.00;;;;;;4900939;29;20032;-77
2023/09/15 05:55:50;;;;;;;0.00;0.00;;;16.80;73.90;;;;;;4901050;29;20036;-77
2023/09/15 05:58:15;;;;;;;0.00;0.00;;;16.90;73.90;;;;;;4901434;29;20032;-77
2023/09/15 06:00:42;;;;;;;0.00;0.00;;;16.90;74.00;;;;;;4904800;29;20061;-79
2023/09/15 06:03:08;;;;;;;0.00;0.00;;;16.90;73.90;;;;;;4917304;29;20397;-78
2023/09/15 06:05:34;;;;;;;0.00;0.00;;;16.90;74.00;;;;;;4911392;29;20451;-80
2023/09/15 06:08:01;;;;;;;0.00;0.00;;;16.90;73.50;;;;;;4917010;29;20025;-78
2023/09/15 06:10:26;;;;;;;0.00;0.00;;;16.90;73.70;;;;;;4918414;29;20024;-77
2023/09/15 06:12:52;;;;;;;0.00;0.00;;;16.90;73.70;;;;;;4900386;29;20035;-77
2023/09/15 06:15:21;;;;;;;0.00;0.00;;;16.90;73.70;;;;;;4909272;29;20112;-78
2023/09/15 06:17:47;;;;;;;0.00;0.00;;;17.00;73.80;;;;;;4910121;29;20447;-78
2023/09/15 06:20:13;;;;;;;0.00;0.00;;;17.00;73.70;;;;;;4919725;29;20068;-78
2023/09/15 06:22:38;;;;;;;0.00;0.00;;;17.00;73.70;;;;;;4918243;29;20124;-78
2023/09/15 06:25:04;;;;;;;0.00;0.00;;;17.00;73.30;;;;;;4914683;29;20087;-78
2023/09/15 06:27:33;;;;;;;0.00;0.00;;;17.10;73.30;;;;;;4918792;29;20024;-78
2023/09/15 06:29:58;;;;;;;0.00;0.00;;;17.10;73.60;;;;;;4902092;29;20503;-78
2023/09/15 06:32:24;;;;;;;0.10;0.10;;;17.10;73.50;;;;;;4889134;29;20052;-78
2023/09/15 06:34:50;;;;;;;0.00;0.00;;;17.10;73.10;;;;;;4917581;29;20083;-78
2023/09/15 06:37:16;;;;;;;0.00;0.00;;;17.10;73.30;;;;;;4918371;29;20046;-78
2023/09/15 06:39:42;;;;;;;0.10;0.10;;;17.20;72.90;;;;;;4920491;29;20028;-78
2023/09/15 06:42:10;;;;;;;0.00;0.00;;;17.30;73.00;;;;;;4907913;29;20036;-78
2023/09/15 06:44:36;;;;;;;0.00;0.00;;;17.30;73.10;;;;;;4912016;29;20055;-78
2023/09/15 06:47:03;;;;;;;0.00;0.00;;;17.40;72.80;;;;;;4913122;29;20066;-78
2023/09/15 06:49:30;;;;;;;0.00;0.00;;;17.50;72.40;;;;;;4901910;29;20033;-78
2023/09/15 06:51:56;;;;;;;0.00;0.00;;;17.60;72.50;;;;;;4919035;29;20261;-78
2023/09/15 06:54:21;;;;;;;0.00;0.00;;;17.70;72.50;;;;;;4908641;29;20044;-78
2023/09/15 06:56:49;;;;;;;0.00;0.00;;;17.70;72.70;;;;;;4918463;29;20032;-78
2023/09/15 06:59:14;;;;;;;0.00;0.00;;;17.80;72.00;;;;;;4886587;29;20068;-77
2023/09/15 07:01:40;;;;;;;0.00;0.00;;;17.80;72.10;;;;;;4917005;29;20544;-77
2023/09/15 07:04:06;;;;;;;0.00;0.00;;;17.90;71.90;;;;;;4922658;29;20554;-77
2023/09/15 07:06:32;;;;;;;0.00;0.00;;;17.90;71.90;;;;;;4921619;29;20059;-77
2023/09/15 07:08:58;;;;;;;0.00;0.00;;;18.00;71.80;;;;;;4922136;29;20024;-78
2023/09/15 07:11:24;;;;;;;0.00;0.00;;;18.20;71.60;;;;;;4922315;29;20488;-77
2023/09/15 07:13:50;;;;;;;0.00;0.00;;;18.30;71.00;;;;;;4922299;29;20104;-78
2023/09/15 07:16:15;;;;;;;0.00;0.00;;;18.50;71.00;;;;;;4920735;29;20039;-77
2023/09/15 07:18:41;;;;;;;0.05;0.05;;;18.70;70.00;;;;;;4922417;29;20056;-77
2023/09/15 07:21:07;;;;;;;0.10;0.10;;;18.70;70.10;;;;;;4903173;29;20047;-78
2023/09/15 07:23:32;;;;;;;0.03;0.03;;;18.90;69.60;;;;;;4911196;29;20028;-77
2023/09/15 07:25:59;;;;;;;0.00;0.00;;;19.30;68.30;;;;;;4897524;29;20404;-78
2023/09/15 07:28:25;;;;;;;0.10;0.10;;;19.50;68.10;;;;;;4921417;29;20024;-77
2023/09/15 07:30:50;;;;;;;0.10;0.10;;;21.00;65.40;;;;;;4903646;29;20101;-78
2023/09/15 07:33:16;;;;;;;0.30;0.30;;;21.50;62.40;;;;;;4914926;29;20033;-78
2023/09/15 07:35:41;;;;;;;0.30;0.30;;;23.10;59.90;;;;;;4908116;29;20524;-78
2023/09/15 07:38:07;;;;;;;0.00;0.00;;;24.80;54.80;;;;;;4922147;29;20024;-79
2023/09/15 07:40:33;;;;;;;0.28;0.28;;;25.10;52.20;;;;;;4922135;29;20032;-78
2023/09/15 07:42:59;;;;;;;0.20;0.20;;;25.40;52.00;;;;;;4921818;29;20028;-78
2023/09/15 07:45:26;;;;;;;0.30;0.30;;;25.50;50.60;;;;;;4901029;29;20564;-78
2023/09/15 07:47:51;;;;;;;0.30;0.30;;;25.30;50.00;;;;;;4886488;29;20036;-78
2023/09/15 07:50:17;;;;;;;0.20;0.20;;;25.20;51.30;;;;;;4904558;29;20029;-78
2023/09/15 07:52:46;;;;;;;0.20;0.10;;;24.70;51.80;;;;;;4920817;29;20028;-79
2023/09/15 07:55:12;;;;;;;0.20;0.20;;;24.00;53.40;;;;;;4916788;29;20033;-76
2023/09/15 07:57:39;;;;;;;0.00;0.00;;;23.20;56.20;;;;;;4918991;29;20488;-77
2023/09/15 08:00:10;;;;;;;0.05;0.05;;;22.60;57.10;;;;;;4916420;29;20032;-76
2023/09/15 08:02:36;;;;;;;0.00;0.00;;;22.00;59.00;;;;;;4918141;29;20024;-76
2023/09/15 08:05:02;;;;;;;0.30;0.30;;;21.70;59.90;;;;;;4914727;29;20032;-77
2023/09/15 08:07:28;;;;;;;0.00;0.00;;;21.30;61.00;;;;;;4921180;29;20039;-76
2023/09/15 08:09:56;;;;;;;0.00;0.00;;;21.20;62.00;;;;;;4921612;29;20020;-77
2023/09/15 08:12:23;;;;;;;0.00;0.00;;;21.20;63.00;;;;;;4921262;29;20934;-77
2023/09/15 08:14:49;;;;;;;0.00;0.00;;;21.20;62.60;;;;;;4920918;29;20170;-77
2023/09/15 08:17:15;;;;;;;0.00;0.00;;;21.00;63.10;;;;;;4921427;29;20043;-77
2023/09/15 08:19:41;;;;;;;0.00;0.00;;;21.00;63.50;;;;;;4921232;29;20115;-77
2023/09/15 08:22:07;;;;;;;0.00;0.00;;;21.00;63.10;;;;;;4903995;29;20528;-76
2023/09/15 08:24:32;;;;;;;0.05;0.05;;;21.10;63.90;;;;;;4920680;29;20016;-77
2023/09/15 08:26:58;;;;;;;0.00;0.00;;;21.20;63.00;;;;;;4921351;29;20031;-76
2023/09/15 08:29:24;;;;;;;0.10;0.00;;;21.20;63.60;;;;;;4904160;29;20040;-76
2023/09/15 08:31:49;;;;;;;0.00;0.00;;;21.10;63.70;;;;;;4919983;29;20048;-77
2023/09/15 08:34:15;;;;;;;0.00;0.00;;;21.10;63.70;;;;;;4921335;29;20032;-76
2023/09/15 08:36:41;;;;;;;0.00;0.00;;;21.10;64.20;;;;;;4921245;29;20062;-76
2023/09/15 08:39:07;;;;;;;0.00;0.00;;;21.10;64.50;;;;;;4921184;29;20050;-77
2023/09/15 08:41:40;;;;;;;0.00;0.00;;;21.10;63.70;;;;;;4920483;29;20036;-77
2023/09/15 08:44:09;;;;;;;0.00;0.00;;;21.10;63.50;;;;;;4903940;29;20088;-77
2023/09/15 08:46:41;;;;;;;0.00;0.00;;;21.20;63.80;;;;;;4920647;29;20040;-77
2023/09/15 08:49:09;;;;;;;0.00;0.00;;;21.20;64.30;;;;;;4920208;29;20032;-77
2023/09/15 08:51:36;;;;;;;0.00;0.00;;;21.30;64.70;;;;;;4920463;29;20068;-77
2023/09/15 08:54:03;;;;;;;0.00;0.00;;;21.30;64.30;;;;;;4903762;29;20028;-77
2023/09/15 08:56:29;;;;;;;0.00;0.00;;;21.40;63.40;;;;;;4920622;29;20111;-77
2023/09/15 08:58:56;;;;;;;0.00;0.00;;;21.40;63.10;;;;;;4920333;29;20040;-77
2023/09/15 09:01:23;;;;;;;0.00;0.00;;;21.50;62.80;;;;;;4920504;29;20140;-77
2023/09/15 09:03:48;;;;;;;0.10;0.10;;;21.50;61.40;;;;;;4920099;29;20021;-76
2023/09/15 09:06:16;;;;;;;0.00;0.00;;;21.60;62.10;;;;;;4902550;29;20059;-77
2023/09/15 09:08:44;;;;;;;0.00;0.00;;;21.60;61.40;;;;;;4920375;29;20024;-77
2023/09/15 09:11:10;;;;;;;0.00;0.00;;;21.70;61.40;;;;;;4920509;29;20181;-77
2023/09/15 09:13:37;;;;;;;0.10;0.10;;;21.80;61.80;;;;;;4920523;29;20030;-77
2023/09/15 09:16:05;;;;;;;0.10;0.10;;;21.80;61.50;;;;;;4902906;29;20032;-78
2023/09/15 09:18:32;;;;;;;0.00;0.00;;;21.90;61.10;;;;;;4908019;29;20037;-77
2023/09/15 09:20:57;;;;;;;0.00;0.00;;;22.00;61.10;;;;;;4901075;29;20871;-77
2023/09/15 09:23:23;;;;;;;0.00;0.00;;;22.10;60.40;;;;;;4901025;29;20029;-77
2023/09/15 09:25:49;;;;;;;0.00;0.00;;;22.20;62.20;;;;;;4915436;29;20156;-77
2023/09/15 09:28:14;;;;;;;0.00;0.00;;;22.30;60.00;;;;;;4901268;29;20039;-77
2023/09/15 09:30:41;;;;;;;0.05;0.05;;;22.30;60.20;;;;;;4901493;29;20135;-77
2023/09/15 09:33:11;;;;;;;0.08;0.08;;;22.40;61.50;;;;;;4918791;29;21023;-76
2023/09/15 09:35:37;;;;;;;0.00;0.00;;;22.50;62.50;;;;;;4911755;29;20075;-77
2023/09/15 09:38:03;;;;;;;0.00;0.00;;;22.50;59.30;;;;;;4901124;29;20037;-77
2023/09/15 09:40:33;;;;;;;0.00;0.00;;;22.70;59.90;;;;;;4908062;29;20108;-77
2023/09/15 09:42:59;;;;;;;0.00;0.00;;;22.80;58.80;;;;;;4919645;29;20058;-77
2023/09/15 09:45:29;;;;;;;0.00;0.00;;;22.90;59.10;;;;;;4919566;29;20036;-77
2023/09/15 09:47:56;;;;;;;0.00;0.00;;;23.00;58.50;;;;;;4916277;29;20508;-77
2023/09/15 09:50:22;;;;;;;0.00;0.00;;;23.10;57.90;;;;;;4900576;29;20036;-76
2023/09/15 09:52:48;;;;;;;0.10;0.10;;;23.20;57.70;;;;;;4893733;29;20436;-77
2023/09/15 09:55:14;;;;;;;0.00;0.00;;;23.30;56.10;;;;;;4899279;29;20520;-77
2023/09/15 09:57:40;;;;;;;0.13;0.13;;;23.40;55.70;;;;;;4900553;29;20036;-77
2023/09/15 10:00:12;;;;;;;0.00;0.00;;;23.50;54.00;;;;;;4905279;29;20067;-77
2023/09/15 10:02:42;;;;;;;0.00;0.00;;;23.50;54.30;;;;;;4919132;29;20040;-78
2023/09/15 10:05:08;;;;;;;0.00;0.00;;;23.60;54.10;;;;;;4919100;29;20059;-77
2023/09/15 10:07:34;;;;;;;0.00;0.00;;;23.70;54.40;;;;;;4919131;29;20036;-77
2023/09/15 10:10:02;;;;;;;0.00;0.00;;;23.70;54.40;;;;;;4902476;29;20149;-77
2023/09/15 10:12:28;;;;;;;0.00;0.00;;;23.80;54.00;;;;;;4918444;29;20036;-77
2023/09/15 10:14:55;;;;;;;0.08;0.08;;;23.80;54.40;;;;;;4917199;29;20469;-77
2023/09/15 10:17:22;;;;;;;0.00;0.00;;;23.80;54.80;;;;;;4913746;29;20037;-77
2023/09/15 10:19:49;;;;;;;0.10;0.05;;;23.90;53.60;;;;;;4914717;29;20052;-77
2023/09/15 10:22:16;;;;;;;0.00;0.00;;;24.00;54.30;;;;;;4918936;29;20096;-77
2023/09/15 10:24:47;;;;;;;0.00;0.00;;;24.00;53.70;;;;;;4918866;29;20028;-77
2023/09/15 10:27:14;;;;;;;0.00;0.00;;;24.20;54.50;;;;;;4919469;29;20024;-77
2023/09/15 10:29:44;;;;;;;0.00;0.00;;;24.20;53.60;;;;;;4899710;29;20036;-77
2023/09/15 10:32:15;;;;;;;0.00;0.00;;;24.30;54.00;;;;;;4910925;29;20076;-77
2023/09/15 10:34:41;;;;;;;0.00;0.00;;;24.30;53.40;;;;;;4919335;29;20063;-77
2023/09/15 10:37:09;;;;;;;0.00;0.00;;;24.30;53.70;;;;;;4918694;29;20032;-77
2023/09/15 10:39:36;;;;;;;0.00;0.00;;;24.40;53.40;;;;;;4902392;29;20040;-77
2023/09/15 10:42:07;;;;;;;0.00;0.00;;;24.50;53.20;;;;;;4914736;29;20032;-78
2023/09/15 10:44:32;;;;;;;0.00;0.00;;;24.60;53.90;;;;;;4900147;29;20029;-77
2023/09/15 10:46:59;;;;;;;0.00;0.00;;;24.60;52.30;;;;;;4900217;29;20092;-77
2023/09/15 10:49:25;;;;;;;0.10;0.10;;;24.60;52.80;;;;;;4883575;29;20036;-78
2023/09/15 10:51:56;;;;;;;0.00;0.00;;;24.70;52.90;;;;;;4913239;29;20056;-78
2023/09/15 10:54:24;;;;;;;0.00;0.00;;;24.70;52.20;;;;;;4919014;29;20622;-77
2023/09/15 10:56:50;;;;;;;0.00;0.00;;;24.80;51.90;;;;;;4897636;29;20039;-77
2023/09/15 10:59:18;;;;;;;0.10;0.10;;;24.80;51.60;;;;;;4909406;29;20036;-77
2023/09/15 11:01:45;;;;;;;0.00;0.00;;;24.90;52.40;;;;;;4918354;29;20028;-77
2023/09/15 11:04:21;;;;;;;0.00;0.00;;;25.00;51.40;;;;;;4902078;29;20028;-77
2023/09/15 11:06:56;;;;;;;0.00;0.00;;;25.00;51.80;;;;;;4919018;29;20033;-77
2023/09/15 11:09:22;;;;;;;0.00;0.00;;;25.10;52.00;;;;;;4919099;29;20024;-77
2023/09/15 11:11:51;;;;;;;0.00;0.00;;;25.10;51.70;;;;;;4918527;29;20056;-77
2023/09/15 11:14:19;;;;;;;0.10;0.10;;;25.10;52.30;;;;;;4918696;29;20036;-77
2023/09/15 11:16:50;;;;;;;0.00;0.00;;;25.10;50.90;;;;;;4901794;29;20032;-78
2023/09/15 11:19:22;;;;;;;0.00;0.00;;;25.20;51.50;;;;;;4918534;29;20043;-77
2023/09/15 11:21:48;;;;;;;0.00;0.00;;;25.30;50.90;;;;;;4918835;29;20511;-77
2023/09/15 11:24:15;;;;;;;0.00;0.00;;;25.30;51.40;;;;;;4899605;29;20758;-77
2023/09/15 11:26:51;;;;;;;0.05;0.05;;;25.30;51.20;;;;;;4901511;29;20397;-77
2023/09/15 11:29:41;;;;;;;0.00;0.00;;;25.40;51.10;;;;;;4903308;29;20017;-77
2023/09/15 11:32:06;;;;;;;0.00;0.00;;;25.60;51.30;;;;;;4895341;29;20052;-77
2023/09/15 11:34:32;;;;;;;0.00;0.00;;;25.60;50.80;;;;;;4922198;29;20051;-77
2023/09/15 11:37:00;;;;;;;0.05;0.05;;;25.60;50.50;;;;;;4921532;29;20032;-77
2023/09/15 11:39:26;;;;;;;0.00;0.00;;;25.70;50.90;;;;;;4922183;29;20067;-77
2023/09/15 11:41:54;;;;;;;0.00;0.00;;;25.70;51.40;;;;;;4921746;29;20036;-77
2023/09/15 11:44:29;;;;;;;0.00;0.00;;;25.80;50.90;;;;;;4921958;29;20032;-77
2023/09/15 11:46:58;;;;;;;0.00;0.00;;;25.80;50.70;;;;;;4921596;29;20051;-77
2023/09/15 11:49:25;;;;;;;0.00;0.00;;;25.90;51.40;;;;;;4904441;29;20032;-77
2023/09/15 11:51:54;;;;;;;0.00;0.00;;;26.00;51.20;;;;;;4921706;29;20024;-77
2023/09/15 11:54:20;;;;;;;0.00;0.00;;;26.00;50.50;;;;;;4920057;29;20059;-77
2023/09/15 11:56:46;;;;;;;0.00;0.00;;;26.10;50.90;;;;;;4923210;29;20040;-77
2023/09/15 11:59:15;;;;;;;0.00;0.00;;;26.10;52.00;;;;;;4911680;29;20107;-77
2023/09/15 12:01:40;;;;;;;0.00;0.00;;;26.20;51.20;;;;;;4904282;29;20119;-77
2023/09/15 12:04:07;;;;;;;0.00;0.00;;;26.20;51.10;;;;;;4904855;29;20075;-77
2023/09/15 12:06:33;;;;;;;0.00;0.00;;;26.30;51.30;;;;;;4921229;29;20062;-77
2023/09/15 12:08:58;;;;;;;0.00;0.00;;;26.30;51.40;;;;;;4899674;29;20096;-78
2023/09/15 12:11:24;;;;;;;0.00;0.00;;;26.30;50.90;;;;;;4914987;29;20087;-78
2023/09/15 12:13:54;;;;;;;0.00;0.00;;;26.30;50.30;;;;;;4918806;29;20079;-77
2023/09/15 12:16:27;;;;;;;0.00;0.00;;;26.40;50.80;;;;;;4916898;29;20133;-77
2023/09/15 12:18:55;;;;;;;0.00;0.00;;;26.40;50.00;;;;;;4919537;29;20036;-77
2023/09/15 12:21:24;;;;;;;0.03;0.00;;;26.40;50.50;;;;;;4918607;29;21104;-77
2023/09/15 12:23:54;;;;;;;0.00;0.00;;;26.50;48.70;;;;;;4920282;29;20098;-77
2023/09/15 12:26:20;;;;;;;0.00;0.00;;;26.60;49.10;;;;;;4920151;29;20055;-77
2023/09/15 12:28:46;;;;;;;0.00;0.00;;;26.60;48.20;;;;;;4907652;29;20092;-77
2023/09/15 12:31:27;;;;;;;0.00;0.00;;;26.80;49.00;;;;;;4903886;29;20434;-77
2023/09/15 12:33:55;;;;;;;0.00;0.00;;;26.80;49.90;;;;;;4920876;29;20037;-77
2023/09/15 12:36:21;;;;;;;0.00;0.00;;;26.90;49.50;;;;;;4921437;29;20021;-78
2023/09/15 12:38:48;;;;;;;0.00;0.00;;;26.80;47.30;;;;;;4903396;29;20115;-77
2023/09/15 12:41:14;;;;;;;0.00;0.00;;;26.80;48.60;;;;;;4920798;29;20071;-76
2023/09/15 12:43:40;;;;;;;0.00;0.00;;;26.90;49.00;;;;;;4903764;29;20028;-77
2023/09/15 12:46:06;;;;;;;0.00;0.00;;;26.90;48.60;;;;;;4920438;29;20039;-78
2023/09/15 12:48:32;;;;;;;0.00;0.00;;;26.90;48.80;;;;;;4912395;29;20033;-78
2023/09/15 12:50:57;;;;;;;0.00;0.00;;;27.00;48.10;;;;;;4902033;29;20020;-78
2023/09/15 12:53:23;;;;;;;0.00;0.00;;;26.90;48.30;;;;;;4902530;29;20501;-77
2023/09/15 12:55:49;;;;;;;0.00;0.00;;;27.00;48.60;;;;;;4901872;29;20123;-77
2023/09/15 12:58:14;;;;;;;0.00;0.00;;;26.80;48.10;;;;;;4910102;29;20079;-78
2023/09/15 13:00:40;;;;;;;0.00;0.00;;;26.90;47.90;;;;;;4903701;29;20024;-78
2023/09/15 13:03:05;;;;;;;0.00;0.00;;;27.10;48.80;;;;;;4902026;29;20043;-77
2023/09/15 13:05:32;;;;;;;0.00;0.00;;;27.20;49.10;;;;;;4904005;29;20032;-77
2023/09/15 13:07:58;;;;;;;0.00;0.00;;;27.30;48.40;;;;;;4919805;29;20028;-77
2023/09/15 13:10:23;;;;;;;0.00;0.00;;;27.30;48.10;;;;;;4899922;29;20401;-78
2023/09/15 13:12:49;;;;;;;0.00;0.00;;;27.40;47.80;;;;;;4901984;29;20028;-78
2023/09/15 13:15:15;;;;;;;0.00;0.00;;;27.50;46.30;;;;;;4901465;29;20886;-78
2023/09/15 13:17:41;;;;;;;0.00;0.00;;;27.60;46.80;;;;;;4913761;29;20060;-78
2023/09/15 13:20:07;;;;;;;0.00;0.00;;;27.80;45.70;;;;;;4915951;29;20039;-78
2023/09/15 13:22:36;;;;;;;0.00;0.00;;;27.60;45.90;;;;;;4919870;29;20016;-79
2023/09/15 13:25:03;;;;;;;0.00;0.00;;;27.40;46.30;;;;;;4919871;29;20079;-78
2023/09/15 13:27:29;;;;;;;0.00;0.00;;;27.30;46.30;;;;;;4920016;29;20031;-78
2023/09/15 13:29:57;;;;;;;0.00;0.00;;;27.30;46.00;;;;;;4920144;29;20036;-78
2023/09/15 13:32:27;;;;;;;0.00;0.00;;;27.40;47.40;;;;;;4902607;29;20059;-78
2023/09/15 13:34:53;;;;;;;0.00;0.00;;;27.50;46.70;;;;;;4903028;29;20400;-78
2023/09/15 13:37:20;;;;;;;0.00;0.00;;;27.50;45.40;;;;;;4902924;29;20039;-79
2023/09/15 13:39:46;;;;;;;0.00;0.00;;;27.60;45.90;;;;;;4915926;29;20044;-78
2023/09/15 13:42:12;;;;;;;0.10;0.10;;;27.60;47.00;;;;;;4919878;29;20031;-78
2023/09/15 13:44:39;;;;;;;0.00;0.00;;;27.60;45.70;;;;;;4919654;29;20056;-78
2023/09/15 13:47:05;;;;;;;0.00;0.00;;;27.60;45.80;;;;;;4919653;29;20507;-77
2023/09/15 13:49:31;;;;;;;0.00;0.00;;;27.60;46.80;;;;;;4919081;29;20032;-77
2023/09/15 13:51:57;;;;;;;0.10;0.10;;;27.70;45.30;;;;;;4919824;29;20028;-78
2023/09/15 13:54:23;;;;;;;0.00;0.00;;;27.80;45.60;;;;;;4919385;29;20047;-78
2023/09/15 13:56:48;;;;;;;0.00;0.00;;;27.80;45.30;;;;;;4919154;29;20090;-77
2023/09/15 13:59:14;;;;;;;0.00;0.00;;;27.70;45.10;;;;;;4918941;29;20067;-77
2023/09/15 14:01:40;;;;;;;0.00;0.00;;;27.60;44.80;;;;;;4902415;29;20032;-77
2023/09/15 14:04:10;;;;;;;0.00;0.00;;;27.60;45.40;;;;;;4919431;29;20055;-77
2023/09/15 14:06:35;;;;;;;0.00;0.00;;;27.70;45.60;;;;;;4902017;29;20024;-78
2023/09/15 14:09:01;;;;;;;0.00;0.00;;;27.60;45.90;;;;;;4920286;29;20034;-78
2023/09/15 14:11:27;;;;;;;0.00;0.00;;;27.50;45.70;;;;;;4912598;29;20567;-78
2023/09/15 14:13:53;;;;;;;0.00;0.00;;;27.50;45.40;;;;;;4924479;29;20027;-78
2023/09/15 14:16:19;;;;;;;0.00;0.00;;;27.40;46.30;;;;;;4918636;29;20631;-78
2023/09/15 14:18:44;;;;;;;0.00;0.00;;;27.50;44.60;;;;;;4927289;29;20404;-78
2023/09/15 14:21:10;;;;;;;0.00;0.00;;;27.50;45.10;;;;;;4910835;29;20401;-78
2023/09/15 14:23:36;;;;;;;0.00;0.00;;;27.70;45.60;;;;;;4922649;29;20555;-78
2023/09/15 14:26:02;;;;;;;0.00;0.00;;;27.80;45.10;;;;;;4902469;29;20035;-78
2023/09/15 14:28:28;;;;;;;0.00;0.00;;;27.90;44.80;;;;;;4902478;29;20039;-78
2023/09/15 14:30:54;;;;;;;0.00;0.00;;;27.90;45.70;;;;;;4918858;29;20125;-77
2023/09/15 14:33:19;;;;;;;0.00;0.00;;;27.80;45.10;;;;;;4919471;29;20452;-78
2023/09/15 14:35:45;;;;;;;0.00;0.00;;;27.80;44.20;;;;;;4918375;29;20028;-77
2023/09/15 14:38:11;;;;;;;0.00;0.00;;;27.80;44.60;;;;;;4900877;29;20388;-79
2023/09/15 14:40:36;;;;;;;0.00;0.00;;;27.90;44.10;;;;;;4918160;29;20032;-79
2023/09/15 14:43:02;;;;;;;0.00;0.00;;;28.00;44.40;;;;;;4918478;29;20028;-80
2023/09/15 14:45:28;;;;;;;0.00;0.00;;;27.80;45.00;;;;;;4928164;29;20451;-80
2023/09/15 14:48:02;;;;;;;0.00;0.00;;;27.80;44.20;;;;;;4917818;29;20051;-80
2023/09/15 14:50:33;;;;;;;0.00;0.00;;;27.60;44.50;;;;;;4916889;29;20056;-79
2023/09/15 14:52:59;;;;;;;0.00;0.00;;;27.80;44.40;;;;;;4916686;29;20055;-79
2023/09/15 14:55:26;;;;;;;0.00;0.00;;;27.80;44.40;;;;;;4917205;29;20036;-79
2023/09/15 14:57:51;;;;;;;0.00;0.00;;;27.80;44.30;;;;;;4913933;29;20021;-79
2023/09/15 15:00:17;;;;;;;0.00;0.00;;;27.60;45.30;;;;;;4918946;29;20632;-79
2023/09/15 15:02:42;;;;;;;0.00;0.00;;;27.70;45.20;;;;;;4921208;29;20032;-80
2023/09/15 15:05:08;;;;;;;0.00;0.00;;;27.60;44.70;;;;;;4922373;29;20059;-81
2023/09/15 15:07:34;;;;;;;0.00;0.00;;;27.50;45.20;;;;;;4922337;29;20039;-85
2023/09/15 15:10:00;;;;;;;0.00;0.00;;;27.40;45.20;;;;;;4916253;29;20083;-79
2023/09/15 15:12:25;;;;;;;0.00;0.00;;;27.50;44.70;;;;;;4910548;29;20032;-78
2023/09/15 15:14:51;;;;;;;0.00;0.00;;;27.50;45.00;;;;;;4921205;29;20039;-79
2023/09/15 15:17:17;;;;;;;0.00;0.00;;;27.30;44.20;;;;;;4902050;29;20028;-78
2023/09/15 15:19:45;;;;;;;0.00;0.00;;;27.20;45.20;;;;;;4919533;29;20028;-78
2023/09/15 15:22:11;;;;;;;0.00;0.00;;;27.20;45.30;;;;;;4919024;29;20024;-79
2023/09/15 15:24:37;;;;;;;0.00;0.00;;;27.20;46.00;;;;;;4916603;29;20028;-78
2023/09/15 15:27:06;;;;;;;0.00;0.00;;;27.10;46.80;;;;;;4919621;29;20020;-78
2023/09/15 15:29:32;;;;;;;0.00;0.00;;;27.00;46.10;;;;;;4902502;29;20480;-78
2023/09/15 15:31:58;;;;;;;0.00;0.00;;;27.20;46.40;;;;;;4919906;29;20123;-77
2023/09/15 15:34:26;;;;;;;0.00;0.00;;;27.40;45.50;;;;;;4919953;29;20119;-78
2023/09/15 15:36:54;;;;;;;0.00;0.00;;;27.60;45.60;;;;;;4920862;29;20024;-78
2023/09/15 15:39:20;;;;;;;0.00;0.00;;;27.70;46.00;;;;;;4920260;29;20040;-78
2023/09/15 15:41:45;;;;;;;0.10;0.00;;;27.60;44.10;;;;;;4917585;29;20799;-78
2023/09/15 15:44:11;;;;;;;0.00;0.00;;;27.30;44.30;;;;;;4918661;29;20029;-78
2023/09/15 15:46:37;;;;;;;0.00;0.00;;;27.10;44.80;;;;;;4919330;29;20024;-78
2023/09/15 15:49:02;;;;;;;0.00;0.00;;;26.90;45.50;;;;;;4902466;29;20028;-77
2023/09/15 15:51:29;;;;;;;0.00;0.00;;;26.90;45.40;;;;;;4919735;29;20111;-78
2023/09/15 15:53:55;;;;;;;0.00;0.00;;;27.00;45.10;;;;;;4920400;29;20634;-78
2023/09/15 15:56:21;;;;;;;0.00;0.00;;;27.20;44.10;;;;;;4925783;29;20036;-77
2023/09/15 15:58:47;;;;;;;0.00;0.00;;;27.20;44.20;;;;;;4920324;29;20388;-78
2023/09/15 16:01:13;;;;;;;0.00;0.00;;;27.30;44.60;;;;;;4901089;29;20032;-78
2023/09/15 16:03:39;;;;;;;0.00;0.00;;;27.30;44.00;;;;;;4897876;29;20043;-78
2023/09/15 16:06:05;;;;;;;0.00;0.00;;;27.30;43.70;;;;;;4918484;29;20058;-78
2023/09/15 16:08:30;;;;;;;0.00;0.00;;;27.20;43.60;;;;;;4903694;29;20472;-78
2023/09/15 16:11:00;;;;;;;0.00;0.00;;;27.20;43.70;;;;;;4920373;29;20488;-78
2023/09/15 16:13:26;;;;;;;0.00;0.00;;;27.30;44.30;;;;;;4919791;29;20039;-79
2023/09/15 16:15:51;;;;;;;0.00;0.00;;;27.20;43.80;;;;;;4917219;29;20032;-78
2023/09/15 16:18:17;;;;;;;0.00;0.00;;;27.10;43.50;;;;;;4904863;29;20051;-78
2023/09/15 16:20:43;;;;;;;0.00;0.00;;;27.00;44.00;;;;;;4900448;29;20409;-78
2023/09/15 16:23:09;;;;;;;0.00;0.00;;;26.90;44.30;;;;;;4896741;29;20044;-83
2023/09/15 16:25:38;;;;;;;0.00;0.00;;;26.80;45.00;;;;;;4899944;29;20030;-82
2023/09/15 16:28:07;;;;;;;0.00;0.00;;;26.70;44.80;;;;;;4912339;29;20044;-77
2023/09/15 16:30:37;;;;;;;0.00;0.00;;;26.60;45.40;;;;;;4888423;29;20055;-77
2023/09/15 16:33:05;;;;;;;0.00;0.00;;;26.70;46.00;;;;;;4899231;29;20433;-77
2023/09/15 16:35:31;;;;;;;0.00;0.00;;;26.70;45.60;;;;;;4917961;29;20024;-77
2023/09/15 16:37:57;;;;;;;0.00;0.00;;;26.80;45.60;;;;;;4917818;29;20038;-77
2023/09/15 16:40:22;;;;;;;0.00;0.00;;;26.90;44.80;;;;;;4903087;29;20020;-78
2023/09/15 16:42:48;;;;;;;0.00;0.00;;;26.80;45.00;;;;;;4915805;29;20040;-74
2023/09/15 16:45:14;;;;;;;0.00;0.00;;;26.80;45.60;;;;;;4913600;29;20035;-76
2023/09/15 16:47:40;;;;;;;0.00;0.00;;;26.60;45.50;;;;;;4919974;29;20039;-77
2023/09/15 16:50:08;;;;;;;0.00;0.00;;;26.60;45.60;;;;;;4920168;29;20055;-77
2023/09/15 16:52:34;;;;;;;0.00;0.00;;;26.50;45.10;;;;;;4901593;29;20032;-76
2023/09/15 16:55:00;;;;;;;0.00;0.00;;;26.40;45.10;;;;;;4909167;29;20627;-76
2023/09/15 16:57:26;;;;;;;0.00;0.00;;;26.30;46.10;;;;;;4917544;29;20464;-79
2023/09/15 16:59:55;;;;;;;0.00;0.00;;;26.30;45.50;;;;;;4900269;29;20301;-77
2023/09/15 17:02:21;;;;;;;0.00;0.00;;;26.30;46.00;;;;;;4902586;29;20036;-83
2023/09/15 17:04:47;;;;;;;0.00;0.00;;;26.20;45.90;;;;;;4895311;29;20031;-76
2023/09/15 17:07:12;;;;;;;0.00;0.00;;;26.30;46.50;;;;;;4902185;29;20040;-79
2023/09/15 17:09:38;;;;;;;0.00;0.00;;;26.20;46.60;;;;;;4901816;29;20032;-81
2023/09/15 17:12:04;;;;;;;0.00;0.00;;;26.20;46.90;;;;;;4897442;29;20082;-78
2023/09/15 17:14:30;;;;;;;0.00;0.00;;;26.20;47.40;;;;;;4920542;29;20032;-78